sensor_id;sensor_type;location;lat;lon;timestamp;P1;durP1;ratioP1;P2;durP2;ratioP2
20110;SDS011;10216;42.658;23.248;2024-03-02T00:01:47;5.33;;;3.97;;
20110;SDS011;10216;42.658;23.248;2024-03-02T00:04:12;5.10;;;4.60;;
20110;SDS011;10216;42.658;23.248;2024-03-02T00:06:38;5.20;;;3.77;;
20110;SDS011;10216;42.658;23.248;2024-03-02T00:09:03;4.03;;;3.50;;
20110;SDS011;10216;42.658;23.248;2024-03-02T00:11:29;6.00;;;3.40;;
20110;SDS011;10216;42.658;23.248;2024-03-02T00:13:54;5.63;;;3.57;;
20110;SDS011;10216;42.658;23.248;2024-03-02T00:16:19;2.80;;;2.53;;
20110;SDS011;10216;42.658;23.248;2024-03-02T00:18:45;3.80;;;3.43;;
20110;SDS011;10216;42.658;23.248;2024-03-02T00:21:10;5.13;;;4.20;;
20110;SDS011;10216;42.658;23.248;2024-03-02T00:23:36;5.30;;;4.43;;
20110;SDS011;10216;42.658;23.248;2024-03-02T00:26:02;4.47;;;3.97;;
20110;SDS011;10216;42.658;23.248;2024-03-02T00:28:29;5.80;;;3.30;;
20110;SDS011;10216;42.658;23.248;2024-03-02T00:33:39;3.10;;;2.80;;
20110;SDS011;10216;42.658;23.248;2024-03-02T00:36:05;7.20;;;3.87;;
20110;SDS011;10216;42.658;23.248;2024-03-02T00:38:31;2.33;;;2.13;;
20110;SDS011;10216;42.658;23.248;2024-03-02T00:41:06;6.47;;;4.10;;
20110;SDS011;10216;42.658;23.248;2024-03-02T00:45:57;4.27;;;3.60;;
20110;SDS011;10216;42.658;23.248;2024-03-02T00:48:23;5.30;;;3.17;;
20110;SDS011;10216;42.658;23.248;2024-03-02T00:50:50;3.77;;;3.07;;
20110;SDS011;10216;42.658;23.248;2024-03-02T00:53:17;4.70;;;3.80;;
20110;SDS011;10216;42.658;23.248;2024-03-02T00:55:43;8.27;;;4.47;;
20110;SDS011;10216;42.658;23.248;2024-03-02T00:58:12;5.17;;;3.53;;
20110;SDS011;10216;42.658;23.248;2024-03-02T01:00:37;4.73;;;3.80;;
20110;SDS011;10216;42.658;23.248;2024-03-02T01:03:03;6.70;;;4.27;;
20110;SDS011;10216;42.658;23.248;2024-03-02T01:05:29;3.97;;;2.67;;
20110;SDS011;10216;42.658;23.248;2024-03-02T01:07:54;6.00;;;3.60;;
20110;SDS011;10216;42.658;23.248;2024-03-02T01:10:19;5.27;;;4.23;;
20110;SDS011;10216;42.658;23.248;2024-03-02T01:12:45;3.87;;;3.53;;
20110;SDS011;10216;42.658;23.248;2024-03-02T01:15:10;4.63;;;3.67;;
20110;SDS011;10216;42.658;23.248;2024-03-02T01:17:36;4.57;;;4.17;;
20110;SDS011;10216;42.658;23.248;2024-03-02T01:20:01;2.47;;;2.27;;
20110;SDS011;10216;42.658;23.248;2024-03-02T01:22:27;3.87;;;2.63;;
20110;SDS011;10216;42.658;23.248;2024-03-02T01:24:52;4.57;;;2.67;;
20110;SDS011;10216;42.658;23.248;2024-03-02T01:27:17;5.07;;;4.10;;
20110;SDS011;10216;42.658;23.248;2024-03-02T01:32:27;4.73;;;4.10;;
20110;SDS011;10216;42.658;23.248;2024-03-02T01:34:53;5.60;;;3.93;;
20110;SDS011;10216;42.658;23.248;2024-03-02T01:37:18;5.00;;;4.47;;
20110;SDS011;10216;42.658;23.248;2024-03-02T01:39:43;4.47;;;3.37;;
20110;SDS011;10216;42.658;23.248;2024-03-02T01:42:09;7.47;;;3.77;;
20110;SDS011;10216;42.658;23.248;2024-03-02T01:44:35;4.10;;;3.70;;
20110;SDS011;10216;42.658;23.248;2024-03-02T01:47:01;4.93;;;3.77;;
20110;SDS011;10216;42.658;23.248;2024-03-02T01:49:26;4.40;;;3.63;;
20110;SDS011;10216;42.658;23.248;2024-03-02T01:51:51;5.13;;;4.57;;
20110;SDS011;10216;42.658;23.248;2024-03-02T01:54:17;3.47;;;2.97;;
20110;SDS011;10216;42.658;23.248;2024-03-02T01:56:42;3.23;;;2.93;;
20110;SDS011;10216;42.658;23.248;2024-03-02T01:59:07;4.27;;;3.23;;
20110;SDS011;10216;42.658;23.248;2024-03-02T02:01:33;4.80;;;3.27;;
20110;SDS011;10216;42.658;23.248;2024-03-02T02:03:58;4.37;;;3.60;;
20110;SDS011;10216;42.658;23.248;2024-03-02T02:06:23;3.70;;;3.13;;
20110;SDS011;10216;42.658;23.248;2024-03-02T02:08:49;5.40;;;4.20;;
20110;SDS011;10216;42.658;23.248;2024-03-02T02:11:15;4.20;;;3.80;;
20110;SDS011;10216;42.658;23.248;2024-03-02T02:13:40;3.80;;;3.33;;
20110;SDS011;10216;42.658;23.248;2024-03-02T02:16:06;6.13;;;4.77;;
20110;SDS011;10216;42.658;23.248;2024-03-02T02:18:31;4.93;;;3.70;;
20110;SDS011;10216;42.658;23.248;2024-03-02T02:20:57;4.73;;;3.97;;
20110;SDS011;10216;42.658;23.248;2024-03-02T02:23:22;4.33;;;3.83;;
20110;SDS011;10216;42.658;23.248;2024-03-02T02:25:48;5.27;;;3.40;;
20110;SDS011;10216;42.658;23.248;2024-03-02T02:28:13;5.20;;;4.10;;
20110;SDS011;10216;42.658;23.248;2024-03-02T02:30:38;3.73;;;3.40;;
20110;SDS011;10216;42.658;23.248;2024-03-02T02:33:04;4.37;;;3.97;;
20110;SDS011;10216;42.658;23.248;2024-03-02T02:35:29;2.90;;;2.63;;
20110;SDS011;10216;42.658;23.248;2024-03-02T02:37:55;4.57;;;2.73;;
20110;SDS011;10216;42.658;23.248;2024-03-02T02:40:20;5.80;;;4.00;;
20110;SDS011;10216;42.658;23.248;2024-03-02T02:42:46;4.50;;;3.37;;
20110;SDS011;10216;42.658;23.248;2024-03-02T02:45:11;4.33;;;3.43;;
20110;SDS011;10216;42.658;23.248;2024-03-02T02:47:38;3.33;;;3.03;;
20110;SDS011;10216;42.658;23.248;2024-03-02T02:50:04;4.73;;;4.13;;
20110;SDS011;10216;42.658;23.248;2024-03-02T02:52:33;4.07;;;3.30;;
20110;SDS011;10216;42.658;23.248;2024-03-02T02:55:00;5.93;;;4.13;;
20110;SDS011;10216;42.658;23.248;2024-03-02T02:57:26;6.90;;;4.73;;
20110;SDS011;10216;42.658;23.248;2024-03-02T02:59:51;4.93;;;4.43;;
20110;SDS011;10216;42.658;23.248;2024-03-02T03:02:16;3.70;;;3.40;;
20110;SDS011;10216;42.658;23.248;2024-03-02T03:04:42;4.13;;;3.73;;
20110;SDS011;10216;42.658;23.248;2024-03-02T03:07:07;6.03;;;3.77;;
20110;SDS011;10216;42.658;23.248;2024-03-02T03:09:32;6.37;;;4.30;;
20110;SDS011;10216;42.658;23.248;2024-03-02T03:11:57;5.30;;;4.07;;
20110;SDS011;10216;42.658;23.248;2024-03-02T03:14:23;2.77;;;2.20;;
20110;SDS011;10216;42.658;23.248;2024-03-02T03:16:48;4.07;;;3.67;;
20110;SDS011;10216;42.658;23.248;2024-03-02T03:19:13;6.13;;;4.73;;
20110;SDS011;10216;42.658;23.248;2024-03-02T03:21:39;5.20;;;3.60;;
20110;SDS011;10216;42.658;23.248;2024-03-02T03:24:04;5.77;;;4.43;;
20110;SDS011;10216;42.658;23.248;2024-03-02T03:26:29;3.60;;;3.30;;
20110;SDS011;10216;42.658;23.248;2024-03-02T03:28:55;4.63;;;4.07;;
20110;SDS011;10216;42.658;23.248;2024-03-02T03:31:20;4.47;;;3.70;;
20110;SDS011;10216;42.658;23.248;2024-03-02T03:33:45;6.90;;;3.87;;
20110;SDS011;10216;42.658;23.248;2024-03-02T03:36:10;6.00;;;4.37;;
20110;SDS011;10216;42.658;23.248;2024-03-02T03:38:36;7.00;;;3.30;;
20110;SDS011;10216;42.658;23.248;2024-03-02T03:41:01;5.57;;;3.63;;
20110;SDS011;10216;42.658;23.248;2024-03-02T03:43:26;5.73;;;4.53;;
20110;SDS011;10216;42.658;23.248;2024-03-02T03:45:52;8.53;;;4.47;;
20110;SDS011;10216;42.658;23.248;2024-03-02T03:48:17;4.07;;;3.03;;
20110;SDS011;10216;42.658;23.248;2024-03-02T03:50:42;9.27;;;4.77;;
20110;SDS011;10216;42.658;23.248;2024-03-02T03:53:07;5.10;;;4.43;;
20110;SDS011;10216;42.658;23.248;2024-03-02T03:55:33;4.90;;;4.33;;
20110;SDS011;10216;42.658;23.248;2024-03-02T03:57:58;8.37;;;5.17;;
20110;SDS011;10216;42.658;23.248;2024-03-02T04:00:24;8.37;;;5.10;;
20110;SDS011;10216;42.658;23.248;2024-03-02T04:02:49;5.73;;;5.20;;
20110;SDS011;10216;42.658;23.248;2024-03-02T04:05:14;6.17;;;5.03;;
20110;SDS011;10216;42.658;23.248;2024-03-02T04:07:40;6.80;;;4.50;;
20110;SDS011;10216;42.658;23.248;2024-03-02T04:10:06;11.47;;;5.47;;
20110;SDS011;10216;42.658;23.248;2024-03-02T04:12:33;8.87;;;6.50;;
20110;SDS011;10216;42.658;23.248;2024-03-02T04:14:58;5.00;;;4.50;;
20110;SDS011;10216;42.658;23.248;2024-03-02T04:17:24;9.00;;;5.53;;
20110;SDS011;10216;42.658;23.248;2024-03-02T04:19:49;7.63;;;5.53;;
20110;SDS011;10216;42.658;23.248;2024-03-02T04:22:15;6.40;;;5.67;;
20110;SDS011;10216;42.658;23.248;2024-03-02T04:24:40;6.33;;;4.87;;
20110;SDS011;10216;42.658;23.248;2024-03-02T04:27:05;5.43;;;4.93;;
20110;SDS011;10216;42.658;23.248;2024-03-02T04:29:30;7.03;;;4.50;;
20110;SDS011;10216;42.658;23.248;2024-03-02T04:31:56;8.10;;;6.13;;
20110;SDS011;10216;42.658;23.248;2024-03-02T04:34:21;7.23;;;4.90;;
20110;SDS011;10216;42.658;23.248;2024-03-02T04:36:46;6.47;;;3.97;;
20110;SDS011;10216;42.658;23.248;2024-03-02T04:39:12;4.60;;;4.20;;
20110;SDS011;10216;42.658;23.248;2024-03-02T04:41:37;5.67;;;5.03;;
20110;SDS011;10216;42.658;23.248;2024-03-02T04:44:02;7.60;;;4.63;;
20110;SDS011;10216;42.658;23.248;2024-03-02T04:46:28;7.47;;;5.77;;
20110;SDS011;10216;42.658;23.248;2024-03-02T04:48:53;8.33;;;6.23;;
20110;SDS011;10216;42.658;23.248;2024-03-02T04:51:22;6.73;;;4.63;;
20110;SDS011;10216;42.658;23.248;2024-03-02T04:53:47;9.80;;;4.83;;
20110;SDS011;10216;42.658;23.248;2024-03-02T04:56:12;5.40;;;3.83;;
20110;SDS011;10216;42.658;23.248;2024-03-02T04:59:01;6.87;;;4.50;;
20110;SDS011;10216;42.658;23.248;2024-03-02T05:01:26;3.83;;;3.50;;
20110;SDS011;10216;42.658;23.248;2024-03-02T05:03:51;6.97;;;5.17;;
20110;SDS011;10216;42.658;23.248;2024-03-02T05:06:16;8.43;;;5.50;;
20110;SDS011;10216;42.658;23.248;2024-03-02T05:08:42;6.70;;;6.00;;
20110;SDS011;10216;42.658;23.248;2024-03-02T05:11:07;7.17;;;5.83;;
20110;SDS011;10216;42.658;23.248;2024-03-02T05:13:51;9.07;;;5.40;;
20110;SDS011;10216;42.658;23.248;2024-03-02T05:16:16;6.20;;;3.93;;
20110;SDS011;10216;42.658;23.248;2024-03-02T05:18:41;8.33;;;4.93;;
20110;SDS011;10216;42.658;23.248;2024-03-02T05:21:06;5.13;;;4.37;;
20110;SDS011;10216;42.658;23.248;2024-03-02T05:23:32;8.93;;;5.83;;
20110;SDS011;10216;42.658;23.248;2024-03-02T05:25:58;7.97;;;5.20;;
20110;SDS011;10216;42.658;23.248;2024-03-02T05:28:24;5.53;;;5.10;;
20110;SDS011;10216;42.658;23.248;2024-03-02T05:30:49;6.40;;;3.87;;
20110;SDS011;10216;42.658;23.248;2024-03-02T05:33:14;6.00;;;4.97;;
20110;SDS011;10216;42.658;23.248;2024-03-02T05:35:40;7.53;;;4.60;;
20110;SDS011;10216;42.658;23.248;2024-03-02T05:38:05;4.20;;;3.80;;
20110;SDS011;10216;42.658;23.248;2024-03-02T05:40:30;6.07;;;5.40;;
20110;SDS011;10216;42.658;23.248;2024-03-02T05:42:56;9.07;;;5.03;;
20110;SDS011;10216;42.658;23.248;2024-03-02T05:45:21;4.80;;;4.23;;
20110;SDS011;10216;42.658;23.248;2024-03-02T05:47:46;7.50;;;5.03;;
20110;SDS011;10216;42.658;23.248;2024-03-02T05:50:12;4.93;;;4.00;;
20110;SDS011;10216;42.658;23.248;2024-03-02T05:52:37;6.80;;;4.27;;
20110;SDS011;10216;42.658;23.248;2024-03-02T05:55:02;12.90;;;5.60;;
20110;SDS011;10216;42.658;23.248;2024-03-02T05:57:28;5.90;;;4.13;;
20110;SDS011;10216;42.658;23.248;2024-03-02T06:00:06;7.53;;;4.73;;
20110;SDS011;10216;42.658;23.248;2024-03-02T06:02:33;7.20;;;5.07;;
20110;SDS011;10216;42.658;23.248;2024-03-02T06:04:58;7.03;;;6.30;;
20110;SDS011;10216;42.658;23.248;2024-03-02T06:07:23;6.07;;;4.50;;
20110;SDS011;10216;42.658;23.248;2024-03-02T06:09:49;5.13;;;4.50;;
20110;SDS011;10216;42.658;23.248;2024-03-02T06:12:16;6.67;;;4.13;;
20110;SDS011;10216;42.658;23.248;2024-03-02T06:14:41;5.20;;;4.13;;
20110;SDS011;10216;42.658;23.248;2024-03-02T06:17:06;6.03;;;5.43;;
20110;SDS011;10216;42.658;23.248;2024-03-02T06:19:32;5.20;;;4.30;;
20110;SDS011;10216;42.658;23.248;2024-03-02T06:21:57;6.57;;;5.13;;
20110;SDS011;10216;42.658;23.248;2024-03-02T06:24:22;3.83;;;3.47;;
20110;SDS011;10216;42.658;23.248;2024-03-02T06:26:48;3.37;;;3.07;;
20110;SDS011;10216;42.658;23.248;2024-03-02T06:29:13;7.83;;;4.33;;
20110;SDS011;10216;42.658;23.248;2024-03-02T06:31:38;6.27;;;3.73;;
20110;SDS011;10216;42.658;23.248;2024-03-02T06:34:04;5.40;;;3.83;;
20110;SDS011;10216;42.658;23.248;2024-03-02T06:36:29;7.87;;;5.57;;
20110;SDS011;10216;42.658;23.248;2024-03-02T06:38:55;7.27;;;4.37;;
20110;SDS011;10216;42.658;23.248;2024-03-02T06:41:20;9.17;;;5.80;;
20110;SDS011;10216;42.658;23.248;2024-03-02T06:43:45;8.97;;;5.20;;
20110;SDS011;10216;42.658;23.248;2024-03-02T06:46:11;6.47;;;5.47;;
20110;SDS011;10216;42.658;23.248;2024-03-02T06:48:39;8.30;;;5.73;;
20110;SDS011;10216;42.658;23.248;2024-03-02T06:51:04;6.27;;;5.63;;
20110;SDS011;10216;42.658;23.248;2024-03-02T06:53:30;9.77;;;6.10;;
20110;SDS011;10216;42.658;23.248;2024-03-02T06:55:56;7.47;;;5.57;;
20110;SDS011;10216;42.658;23.248;2024-03-02T06:58:22;6.37;;;5.13;;
20110;SDS011;10216;42.658;23.248;2024-03-02T07:00:47;5.47;;;4.83;;
20110;SDS011;10216;42.658;23.248;2024-03-02T07:03:16;8.60;;;5.53;;
20110;SDS011;10216;42.658;23.248;2024-03-02T07:05:41;5.57;;;4.23;;
20110;SDS011;10216;42.658;23.248;2024-03-02T07:08:07;6.03;;;5.43;;
20110;SDS011;10216;42.658;23.248;2024-03-02T07:10:33;3.90;;;3.47;;
20110;SDS011;10216;42.658;23.248;2024-03-02T07:12:58;6.20;;;4.10;;
20110;SDS011;10216;42.658;23.248;2024-03-02T07:15:23;5.87;;;4.97;;
20110;SDS011;10216;42.658;23.248;2024-03-02T07:17:51;4.90;;;4.40;;
20110;SDS011;10216;42.658;23.248;2024-03-02T07:20:17;4.37;;;3.80;;
20110;SDS011;10216;42.658;23.248;2024-03-02T07:22:42;3.80;;;3.50;;
20110;SDS011;10216;42.658;23.248;2024-03-02T07:25:08;3.30;;;2.93;;
20110;SDS011;10216;42.658;23.248;2024-03-02T07:27:33;3.17;;;2.90;;
20110;SDS011;10216;42.658;23.248;2024-03-02T07:30:00;3.47;;;3.10;;
20110;SDS011;10216;42.658;23.248;2024-03-02T07:32:26;6.57;;;3.67;;
20110;SDS011;10216;42.658;23.248;2024-03-02T07:34:51;4.13;;;3.83;;
20110;SDS011;10216;42.658;23.248;2024-03-02T07:37:17;5.30;;;3.77;;
20110;SDS011;10216;42.658;23.248;2024-03-02T07:39:43;3.37;;;2.97;;
20110;SDS011;10216;42.658;23.248;2024-03-02T07:42:09;4.23;;;3.80;;
20110;SDS011;10216;42.658;23.248;2024-03-02T07:44:34;4.73;;;4.23;;
20110;SDS011;10216;42.658;23.248;2024-03-02T07:46:59;6.40;;;4.00;;
20110;SDS011;10216;42.658;23.248;2024-03-02T07:49:25;4.97;;;3.13;;
20110;SDS011;10216;42.658;23.248;2024-03-02T07:51:50;8.73;;;4.83;;
20110;SDS011;10216;42.658;23.248;2024-03-02T07:54:15;7.53;;;4.77;;
20110;SDS011;10216;42.658;23.248;2024-03-02T07:56:40;7.03;;;5.07;;
20110;SDS011;10216;42.658;23.248;2024-03-02T07:59:06;5.57;;;4.97;;
20110;SDS011;10216;42.658;23.248;2024-03-02T08:01:32;4.87;;;4.30;;
20110;SDS011;10216;42.658;23.248;2024-03-02T08:03:58;7.30;;;4.47;;
20110;SDS011;10216;42.658;23.248;2024-03-02T08:06:26;5.03;;;4.37;;
20110;SDS011;10216;42.658;23.248;2024-03-02T08:08:54;4.70;;;3.83;;
20110;SDS011;10216;42.658;23.248;2024-03-02T08:11:20;6.23;;;4.47;;
20110;SDS011;10216;42.658;23.248;2024-03-02T08:13:45;4.93;;;2.83;;
20110;SDS011;10216;42.658;23.248;2024-03-02T08:16:11;8.13;;;5.73;;
20110;SDS011;10216;42.658;23.248;2024-03-02T08:18:36;6.37;;;4.90;;
20110;SDS011;10216;42.658;23.248;2024-03-02T08:21:01;6.97;;;4.60;;
20110;SDS011;10216;42.658;23.248;2024-03-02T08:23:27;6.90;;;4.67;;
20110;SDS011;10216;42.658;23.248;2024-03-02T08:25:52;7.50;;;4.77;;
20110;SDS011;10216;42.658;23.248;2024-03-02T08:28:18;6.03;;;4.53;;
20110;SDS011;10216;42.658;23.248;2024-03-02T08:30:43;5.10;;;4.03;;
20110;SDS011;10216;42.658;23.248;2024-03-02T08:33:08;4.40;;;4.00;;
20110;SDS011;10216;42.658;23.248;2024-03-02T08:35:33;7.53;;;5.47;;
20110;SDS011;10216;42.658;23.248;2024-03-02T08:38:04;5.53;;;4.00;;
20110;SDS011;10216;42.658;23.248;2024-03-02T08:40:29;9.80;;;5.17;;
20110;SDS011;10216;42.658;23.248;2024-03-02T08:42:54;4.83;;;3.40;;
20110;SDS011;10216;42.658;23.248;2024-03-02T08:45:20;6.27;;;4.43;;
20110;SDS011;10216;42.658;23.248;2024-03-02T08:47:46;6.87;;;4.87;;
20110;SDS011;10216;42.658;23.248;2024-03-02T08:50:11;6.57;;;4.70;;
20110;SDS011;10216;42.658;23.248;2024-03-02T08:52:36;7.30;;;4.37;;
20110;SDS011;10216;42.658;23.248;2024-03-02T08:55:02;8.07;;;4.50;;
20110;SDS011;10216;42.658;23.248;2024-03-02T08:57:27;7.50;;;4.80;;
20110;SDS011;10216;42.658;23.248;2024-03-02T08:59:53;4.57;;;4.17;;
20110;SDS011;10216;42.658;23.248;2024-03-02T09:02:18;4.20;;;3.80;;
20110;SDS011;10216;42.658;23.248;2024-03-02T09:04:43;4.90;;;3.77;;
20110;SDS011;10216;42.658;23.248;2024-03-02T09:07:09;11.57;;;4.83;;
20110;SDS011;10216;42.658;23.248;2024-03-02T09:09:34;14.80;;;9.83;;
20110;SDS011;10216;42.658;23.248;2024-03-02T09:12:00;5.90;;;5.30;;
20110;SDS011;10216;42.658;23.248;2024-03-02T09:14:25;5.43;;;3.93;;
20110;SDS011;10216;42.658;23.248;2024-03-02T09:16:50;3.50;;;3.13;;
20110;SDS011;10216;42.658;23.248;2024-03-02T09:19:16;5.73;;;4.80;;
20110;SDS011;10216;42.658;23.248;2024-03-02T09:21:41;4.57;;;3.47;;
20110;SDS011;10216;42.658;23.248;2024-03-02T09:24:07;9.30;;;5.30;;
20110;SDS011;10216;42.658;23.248;2024-03-02T09:26:32;5.60;;;4.00;;
20110;SDS011;10216;42.658;23.248;2024-03-02T09:28:57;6.47;;;4.60;;
20110;SDS011;10216;42.658;23.248;2024-03-02T09:31:23;8.93;;;6.03;;
20110;SDS011;10216;42.658;23.248;2024-03-02T09:33:48;7.33;;;4.17;;
20110;SDS011;10216;42.658;23.248;2024-03-02T09:36:20;4.70;;;4.10;;
20110;SDS011;10216;42.658;23.248;2024-03-02T09:38:45;6.20;;;4.43;;
20110;SDS011;10216;42.658;23.248;2024-03-02T09:41:10;7.43;;;5.60;;
20110;SDS011;10216;42.658;23.248;2024-03-02T09:43:36;7.40;;;5.00;;
20110;SDS011;10216;42.658;23.248;2024-03-02T09:46:01;5.03;;;4.23;;
20110;SDS011;10216;42.658;23.248;2024-03-02T09:48:27;6.87;;;5.07;;
20110;SDS011;10216;42.658;23.248;2024-03-02T09:50:52;4.93;;;3.37;;
20110;SDS011;10216;42.658;23.248;2024-03-02T09:53:17;5.73;;;3.40;;
20110;SDS011;10216;42.658;23.248;2024-03-02T09:55:46;5.53;;;4.43;;
20110;SDS011;10216;42.658;23.248;2024-03-02T09:58:12;6.57;;;4.53;;
20110;SDS011;10216;42.658;23.248;2024-03-02T10:00:37;5.50;;;5.00;;
20110;SDS011;10216;42.658;23.248;2024-03-02T10:03:03;5.33;;;3.60;;
20110;SDS011;10216;42.658;23.248;2024-03-02T10:05:29;3.87;;;3.53;;
20110;SDS011;10216;42.658;23.248;2024-03-02T10:08:01;7.23;;;5.33;;
20110;SDS011;10216;42.658;23.248;2024-03-02T10:10:37;7.13;;;4.13;;
20110;SDS011;10216;42.658;23.248;2024-03-02T10:13:07;9.10;;;5.47;;
20110;SDS011;10216;42.658;23.248;2024-03-02T10:15:33;6.13;;;4.87;;
20110;SDS011;10216;42.658;23.248;2024-03-02T10:17:58;7.97;;;5.07;;
20110;SDS011;10216;42.658;23.248;2024-03-02T10:20:24;5.53;;;4.07;;
20110;SDS011;10216;42.658;23.248;2024-03-02T10:22:49;4.47;;;4.07;;
20110;SDS011;10216;42.658;23.248;2024-03-02T10:25:33;4.63;;;4.23;;
20110;SDS011;10216;42.658;23.248;2024-03-02T10:27:59;8.37;;;5.53;;
20110;SDS011;10216;42.658;23.248;2024-03-02T10:30:28;8.03;;;4.33;;
20110;SDS011;10216;42.658;23.248;2024-03-02T10:32:54;5.60;;;5.00;;
20110;SDS011;10216;42.658;23.248;2024-03-02T10:35:21;7.80;;;5.47;;
20110;SDS011;10216;42.658;23.248;2024-03-02T10:37:47;6.07;;;4.20;;
20110;SDS011;10216;42.658;23.248;2024-03-02T10:40:13;5.83;;;5.20;;
20110;SDS011;10216;42.658;23.248;2024-03-02T10:42:38;9.77;;;4.50;;
20110;SDS011;10216;42.658;23.248;2024-03-02T10:45:05;8.30;;;5.23;;
20110;SDS011;10216;42.658;23.248;2024-03-02T10:47:31;6.50;;;4.67;;
20110;SDS011;10216;42.658;23.248;2024-03-02T10:49:57;6.27;;;3.37;;
20110;SDS011;10216;42.658;23.248;2024-03-02T10:52:24;6.37;;;3.87;;
20110;SDS011;10216;42.658;23.248;2024-03-02T10:54:49;6.00;;;4.50;;
20110;SDS011;10216;42.658;23.248;2024-03-02T10:57:15;5.47;;;4.10;;
20110;SDS011;10216;42.658;23.248;2024-03-02T10:59:56;5.97;;;4.40;;
20110;SDS011;10216;42.658;23.248;2024-03-02T11:02:22;4.23;;;3.27;;
20110;SDS011;10216;42.658;23.248;2024-03-02T11:04:49;8.13;;;4.70;;
20110;SDS011;10216;42.658;23.248;2024-03-02T11:07:15;7.37;;;4.97;;
20110;SDS011;10216;42.658;23.248;2024-03-02T11:09:45;7.83;;;4.80;;
20110;SDS011;10216;42.658;23.248;2024-03-02T11:12:19;7.93;;;6.17;;
20110;SDS011;10216;42.658;23.248;2024-03-02T11:14:44;5.60;;;4.17;;
20110;SDS011;10216;42.658;23.248;2024-03-02T11:17:10;6.00;;;4.77;;
20110;SDS011;10216;42.658;23.248;2024-03-02T11:19:36;10.30;;;5.90;;
20110;SDS011;10216;42.658;23.248;2024-03-02T11:22:03;5.57;;;5.07;;
20110;SDS011;10216;42.658;23.248;2024-03-02T11:24:29;6.77;;;4.73;;
20110;SDS011;10216;42.658;23.248;2024-03-02T11:27:04;8.10;;;4.50;;
20110;SDS011;10216;42.658;23.248;2024-03-02T11:32:20;7.97;;;4.13;;
20110;SDS011;10216;42.658;23.248;2024-03-02T11:34:46;4.27;;;3.80;;
20110;SDS011;10216;42.658;23.248;2024-03-02T11:37:13;5.40;;;3.77;;
20110;SDS011;10216;42.658;23.248;2024-03-02T11:39:39;9.13;;;4.60;;
20110;SDS011;10216;42.658;23.248;2024-03-02T11:42:07;10.03;;;5.63;;
20110;SDS011;10216;42.658;23.248;2024-03-02T11:44:36;18.70;;;6.43;;
20110;SDS011;10216;42.658;23.248;2024-03-02T11:47:05;10.10;;;6.50;;
20110;SDS011;10216;42.658;23.248;2024-03-02T11:49:37;7.23;;;5.93;;
20110;SDS011;10216;42.658;23.248;2024-03-02T11:52:05;7.47;;;5.73;;
20110;SDS011;10216;42.658;23.248;2024-03-02T11:54:34;8.37;;;5.50;;
20110;SDS011;10216;42.658;23.248;2024-03-02T11:57:01;8.93;;;6.20;;
20110;SDS011;10216;42.658;23.248;2024-03-02T11:59:27;7.13;;;5.47;;
20110;SDS011;10216;42.658;23.248;2024-03-02T12:01:53;6.33;;;5.70;;
20110;SDS011;10216;42.658;23.248;2024-03-02T12:04:18;6.23;;;5.67;;
20110;SDS011;10216;42.658;23.248;2024-03-02T12:06:44;6.47;;;5.20;;
20110;SDS011;10216;42.658;23.248;2024-03-02T12:09:11;7.60;;;5.80;;
20110;SDS011;10216;42.658;23.248;2024-03-02T12:11:37;11.73;;;7.53;;
20110;SDS011;10216;42.658;23.248;2024-03-02T12:14:02;9.20;;;5.40;;
20110;SDS011;10216;42.658;23.248;2024-03-02T12:16:29;14.73;;;7.63;;
20110;SDS011;10216;42.658;23.248;2024-03-02T12:18:54;9.27;;;7.47;;
20110;SDS011;10216;42.658;23.248;2024-03-02T12:21:20;10.37;;;6.70;;
20110;SDS011;10216;42.658;23.248;2024-03-02T12:23:45;10.77;;;5.73;;
20110;SDS011;10216;42.658;23.248;2024-03-02T12:26:10;9.10;;;6.03;;
20110;SDS011;10216;42.658;23.248;2024-03-02T12:28:36;10.97;;;4.87;;
20110;SDS011;10216;42.658;23.248;2024-03-02T12:31:02;12.50;;;5.90;;
20110;SDS011;10216;42.658;23.248;2024-03-02T12:33:27;13.17;;;7.03;;
20110;SDS011;10216;42.658;23.248;2024-03-02T12:35:54;11.10;;;7.47;;
20110;SDS011;10216;42.658;23.248;2024-03-02T12:38:19;8.37;;;5.40;;
20110;SDS011;10216;42.658;23.248;2024-03-02T12:40:47;8.70;;;5.97;;
20110;SDS011;10216;42.658;23.248;2024-03-02T12:43:12;10.53;;;6.57;;
20110;SDS011;10216;42.658;23.248;2024-03-02T12:45:37;10.07;;;5.70;;
20110;SDS011;10216;42.658;23.248;2024-03-02T12:48:04;10.70;;;6.53;;
20110;SDS011;10216;42.658;23.248;2024-03-02T12:50:30;10.63;;;6.17;;
20110;SDS011;10216;42.658;23.248;2024-03-02T12:52:55;14.07;;;7.60;;
20110;SDS011;10216;42.658;23.248;2024-03-02T12:55:21;8.60;;;5.93;;
20110;SDS011;10216;42.658;23.248;2024-03-02T12:57:47;10.00;;;6.57;;
20110;SDS011;10216;42.658;23.248;2024-03-02T13:00:12;15.57;;;8.43;;
20110;SDS011;10216;42.658;23.248;2024-03-02T13:02:41;15.13;;;8.40;;
20110;SDS011;10216;42.658;23.248;2024-03-02T13:05:07;14.83;;;9.07;;
20110;SDS011;10216;42.658;23.248;2024-03-02T13:07:36;15.07;;;8.37;;
20110;SDS011;10216;42.658;23.248;2024-03-02T13:10:01;14.63;;;8.77;;
20110;SDS011;10216;42.658;23.248;2024-03-02T13:12:27;12.73;;;8.67;;
20110;SDS011;10216;42.658;23.248;2024-03-02T13:14:53;14.13;;;7.60;;
20110;SDS011;10216;42.658;23.248;2024-03-02T13:17:20;11.20;;;7.20;;
20110;SDS011;10216;42.658;23.248;2024-03-02T13:19:55;15.23;;;8.40;;
20110;SDS011;10216;42.658;23.248;2024-03-02T13:22:20;17.63;;;9.93;;
20110;SDS011;10216;42.658;23.248;2024-03-02T13:24:46;15.97;;;9.30;;
20110;SDS011;10216;42.658;23.248;2024-03-02T13:27:11;8.37;;;5.43;;
20110;SDS011;10216;42.658;23.248;2024-03-02T13:29:37;10.80;;;6.30;;
20110;SDS011;10216;42.658;23.248;2024-03-02T13:32:02;11.40;;;8.27;;
20110;SDS011;10216;42.658;23.248;2024-03-02T13:34:28;16.67;;;10.63;;
20110;SDS011;10216;42.658;23.248;2024-03-02T13:36:53;7.03;;;5.70;;
20110;SDS011;10216;42.658;23.248;2024-03-02T13:39:18;10.60;;;6.93;;
20110;SDS011;10216;42.658;23.248;2024-03-02T13:41:43;9.07;;;6.13;;
20110;SDS011;10216;42.658;23.248;2024-03-02T13:44:17;29.37;;;15.43;;
20110;SDS011;10216;42.658;23.248;2024-03-02T13:46:42;10.40;;;6.30;;
20110;SDS011;10216;42.658;23.248;2024-03-02T13:49:10;8.77;;;6.47;;
20110;SDS011;10216;42.658;23.248;2024-03-02T13:51:35;10.87;;;6.67;;
20110;SDS011;10216;42.658;23.248;2024-03-02T13:54:01;13.50;;;8.77;;
20110;SDS011;10216;42.658;23.248;2024-03-02T13:56:28;12.57;;;8.80;;
20110;SDS011;10216;42.658;23.248;2024-03-02T13:58:53;14.20;;;8.47;;
20110;SDS011;10216;42.658;23.248;2024-03-02T14:01:18;14.50;;;9.13;;
20110;SDS011;10216;42.658;23.248;2024-03-02T14:03:44;17.13;;;9.50;;
20110;SDS011;10216;42.658;23.248;2024-03-02T14:06:11;13.40;;;9.17;;
20110;SDS011;10216;42.658;23.248;2024-03-02T14:08:36;21.27;;;10.80;;
20110;SDS011;10216;42.658;23.248;2024-03-02T14:11:01;16.07;;;10.03;;
20110;SDS011;10216;42.658;23.248;2024-03-02T14:13:28;13.70;;;9.10;;
20110;SDS011;10216;42.658;23.248;2024-03-02T14:15:54;15.67;;;9.33;;
20110;SDS011;10216;42.658;23.248;2024-03-02T14:18:19;14.00;;;9.53;;
20110;SDS011;10216;42.658;23.248;2024-03-02T14:20:46;16.90;;;9.13;;
20110;SDS011;10216;42.658;23.248;2024-03-02T14:23:17;18.13;;;11.13;;
20110;SDS011;10216;42.658;23.248;2024-03-02T14:25:42;16.80;;;10.63;;
20110;SDS011;10216;42.658;23.248;2024-03-02T14:28:07;19.10;;;9.90;;
20110;SDS011;10216;42.658;23.248;2024-03-02T14:30:32;19.43;;;10.73;;
20110;SDS011;10216;42.658;23.248;2024-03-02T14:32:59;21.20;;;11.63;;
20110;SDS011;10216;42.658;23.248;2024-03-02T14:35:25;26.90;;;20.63;;